sensor_id;sensor_type;location;lat;lon;timestamp;P1;durP1;ratioP1;P2;durP2;ratioP2
51122;SDS011;37162;41.724;13.346;2022-11-04T00:01:30;5.45;;;3.67;;
51122;SDS011;37162;41.724;13.346;2022-11-04T00:03:57;5.32;;;3.53;;
51122;SDS011;37162;41.724;13.346;2022-11-04T00:06:22;7.75;;;4.68;;
51122;SDS011;37162;41.724;13.346;2022-11-04T00:08:49;5.18;;;3.90;;
51122;SDS011;37162;41.724;13.346;2022-11-04T00:11:18;5.25;;;3.80;;
51122;SDS011;37162;41.724;13.346;2022-11-04T00:14:03;5.95;;;4.05;;
51122;SDS011;37162;41.724;13.346;2022-11-04T00:16:30;6.60;;;3.85;;
51122;SDS011;37162;41.724;13.346;2022-11-04T00:19:14;6.93;;;4.70;;
51122;SDS011;37162;41.724;13.346;2022-11-04T00:21:39;6.13;;;4.03;;
51122;SDS011;37162;41.724;13.346;2022-11-04T00:24:23;7.05;;;3.83;;
51122;SDS011;37162;41.724;13.346;2022-11-04T00:27:16;6.15;;;3.97;;
51122;SDS011;37162;41.724;13.346;2022-11-04T00:30:04;6.30;;;4.22;;
51122;SDS011;37162;41.724;13.346;2022-11-04T00:32:32;7.18;;;4.50;;
51122;SDS011;37162;41.724;13.346;2022-11-04T00:35:17;6.88;;;3.97;;
51122;SDS011;37162;41.724;13.346;2022-11-04T00:37:43;4.07;;;3.55;;
51122;SDS011;37162;41.724;13.346;2022-11-04T00:40:10;4.45;;;3.63;;
51122;SDS011;37162;41.724;13.346;2022-11-04T00:42:38;7.18;;;4.30;;
51122;SDS011;37162;41.724;13.346;2022-11-04T00:45:03;7.32;;;3.97;;
51122;SDS011;37162;41.724;13.346;2022-11-04T00:47:30;6.25;;;4.03;;
51122;SDS011;37162;41.724;13.346;2022-11-04T00:49:55;6.68;;;3.75;;
51122;SDS011;37162;41.724;13.346;2022-11-04T00:52:21;4.45;;;3.63;;
51122;SDS011;37162;41.724;13.346;2022-11-04T00:54:46;4.70;;;3.30;;
51122;SDS011;37162;41.724;13.346;2022-11-04T00:57:12;6.53;;;3.88;;
51122;SDS011;37162;41.724;13.346;2022-11-04T00:59:37;8.25;;;3.83;;
51122;SDS011;37162;41.724;13.346;2022-11-04T01:02:04;4.60;;;3.47;;
51122;SDS011;37162;41.724;13.346;2022-11-04T01:04:29;5.95;;;3.47;;
51122;SDS011;37162;41.724;13.346;2022-11-04T01:06:55;5.25;;;3.45;;
51122;SDS011;37162;41.724;13.346;2022-11-04T01:09:20;5.55;;;3.42;;
51122;SDS011;37162;41.724;13.346;2022-11-04T01:11:46;4.70;;;3.53;;
51122;SDS011;37162;41.724;13.346;2022-11-04T01:14:12;4.50;;;3.25;;
51122;SDS011;37162;41.724;13.346;2022-11-04T01:16:38;5.72;;;3.65;;
51122;SDS011;37162;41.724;13.346;2022-11-04T01:19:04;4.88;;;3.47;;
51122;SDS011;37162;41.724;13.346;2022-11-04T01:21:29;4.03;;;2.95;;
51122;SDS011;37162;41.724;13.346;2022-11-04T01:23:55;6.25;;;3.22;;
51122;SDS011;37162;41.724;13.346;2022-11-04T01:26:21;7.25;;;3.15;;
51122;SDS011;37162;41.724;13.346;2022-11-04T01:28:48;5.25;;;3.17;;
51122;SDS011;37162;41.724;13.346;2022-11-04T01:31:17;4.22;;;2.78;;
51122;SDS011;37162;41.724;13.346;2022-11-04T01:33:47;6.50;;;4.32;;
51122;SDS011;37162;41.724;13.346;2022-11-04T01:36:13;6.30;;;3.47;;
51122;SDS011;37162;41.724;13.346;2022-11-04T01:38:39;4.65;;;3.60;;
51122;SDS011;37162;41.724;13.346;2022-11-04T01:41:05;6.22;;;3.60;;
51122;SDS011;37162;41.724;13.346;2022-11-04T01:43:49;6.18;;;3.42;;
51122;SDS011;37162;41.724;13.346;2022-11-04T01:46:41;4.30;;;3.10;;
51122;SDS011;37162;41.724;13.346;2022-11-04T01:49:10;5.18;;;3.20;;
51122;SDS011;37162;41.724;13.346;2022-11-04T01:52:04;6.25;;;3.53;;
51122;SDS011;37162;41.724;13.346;2022-11-04T01:54:33;3.80;;;2.90;;
51122;SDS011;37162;41.724;13.346;2022-11-04T01:57:01;7.50;;;3.30;;
51122;SDS011;37162;41.724;13.346;2022-11-04T01:59:31;4.65;;;3.30;;
51122;SDS011;37162;41.724;13.346;2022-11-04T02:01:59;5.50;;;3.15;;
51122;SDS011;37162;41.724;13.346;2022-11-04T02:04:24;6.10;;;2.95;;
51122;SDS011;37162;41.724;13.346;2022-11-04T02:06:58;5.78;;;3.28;;
51122;SDS011;37162;41.724;13.346;2022-11-04T02:09:27;4.55;;;3.28;;
51122;SDS011;37162;41.724;13.346;2022-11-04T02:11:55;6.07;;;3.75;;
51122;SDS011;37162;41.724;13.346;2022-11-04T02:14:39;8.38;;;3.30;;
51122;SDS011;37162;41.724;13.346;2022-11-04T02:22:47;6.18;;;2.95;;
51122;SDS011;37162;41.724;13.346;2022-11-04T02:30:47;4.00;;;2.78;;
51122;SDS011;37162;41.724;13.346;2022-11-04T02:35:58;6.25;;;3.85;;
51122;SDS011;37162;41.724;13.346;2022-11-04T02:38:39;4.72;;;3.25;;
51122;SDS011;37162;41.724;13.346;2022-11-04T02:44:13;3.35;;;2.67;;
51122;SDS011;37162;41.724;13.346;2022-11-04T02:49:33;4.93;;;2.80;;
51122;SDS011;37162;41.724;13.346;2022-11-04T02:52:05;8.25;;;3.30;;
51122;SDS011;37162;41.724;13.346;2022-11-04T02:54:42;4.78;;;3.10;;
51122;SDS011;37162;41.724;13.346;2022-11-04T02:57:18;3.90;;;2.63;;
51122;SDS011;37162;41.724;13.346;2022-11-04T02:59:51;7.30;;;3.00;;
51122;SDS011;37162;41.724;13.346;2022-11-04T03:02:33;6.15;;;3.67;;
51122;SDS011;37162;41.724;13.346;2022-11-04T03:05:04;5.55;;;3.45;;
51122;SDS011;37162;41.724;13.346;2022-11-04T03:07:34;5.50;;;3.03;;
51122;SDS011;37162;41.724;13.346;2022-11-04T03:10:12;6.32;;;2.65;;
51122;SDS011;37162;41.724;13.346;2022-11-04T03:12:55;4.50;;;2.53;;
51122;SDS011;37162;41.724;13.346;2022-11-04T03:15:28;6.32;;;2.83;;
51122;SDS011;37162;41.724;13.346;2022-11-04T03:20:32;2.95;;;2.67;;
51122;SDS011;37162;41.724;13.346;2022-11-04T03:23:02;6.13;;;2.38;;
51122;SDS011;37162;41.724;13.346;2022-11-04T03:25:31;4.68;;;2.63;;
51122;SDS011;37162;41.724;13.346;2022-11-04T03:30:56;6.15;;;2.58;;
51122;SDS011;37162;41.724;13.346;2022-11-04T03:36:07;4.25;;;2.75;;
51122;SDS011;37162;41.724;13.346;2022-11-04T03:38:36;2.65;;;2.40;;
51122;SDS011;37162;41.724;13.346;2022-11-04T03:41:03;4.68;;;2.72;;
51122;SDS011;37162;41.724;13.346;2022-11-04T03:43:48;5.35;;;2.55;;
51122;SDS011;37162;41.724;13.346;2022-11-04T03:46:13;4.68;;;3.00;;
51122;SDS011;37162;41.724;13.346;2022-11-04T03:48:39;3.22;;;2.20;;
51122;SDS011;37162;41.724;13.346;2022-11-04T03:51:07;6.45;;;2.60;;
51122;SDS011;37162;41.724;13.346;2022-11-04T03:53:33;6.47;;;2.90;;
51122;SDS011;37162;41.724;13.346;2022-11-04T04:07:44;4.20;;;2.20;;
51122;SDS011;37162;41.724;13.346;2022-11-04T04:10:23;3.38;;;2.50;;
51122;SDS011;37162;41.724;13.346;2022-11-04T04:13:08;6.75;;;2.38;;
51122;SDS011;37162;41.724;13.346;2022-11-04T04:15:42;5.93;;;2.17;;
51122;SDS011;37162;41.724;13.346;2022-11-04T04:18:12;5.13;;;2.72;;
51122;SDS011;37162;41.724;13.346;2022-11-04T04:20:38;5.07;;;2.30;;
51122;SDS011;37162;41.724;13.346;2022-11-04T04:23:26;5.47;;;3.35;;
51122;SDS011;37162;41.724;13.346;2022-11-04T04:26:12;3.78;;;2.15;;
51122;SDS011;37162;41.724;13.346;2022-11-04T04:28:58;3.47;;;2.80;;
51122;SDS011;37162;41.724;13.346;2022-11-04T04:31:27;3.78;;;2.60;;
51122;SDS011;37162;41.724;13.346;2022-11-04T04:34:13;7.35;;;2.70;;
51122;SDS011;37162;41.724;13.346;2022-11-04T04:36:49;6.57;;;3.25;;
51122;SDS011;37162;41.724;13.346;2022-11-04T04:39:19;5.03;;;2.50;;
51122;SDS011;37162;41.724;13.346;2022-11-04T04:42:07;5.15;;;2.75;;
51122;SDS011;37162;41.724;13.346;2022-11-04T04:44:51;4.20;;;2.60;;
51122;SDS011;37162;41.724;13.346;2022-11-04T04:50:01;6.00;;;2.43;;
51122;SDS011;37162;41.724;13.346;2022-11-04T04:52:27;5.95;;;2.78;;
51122;SDS011;37162;41.724;13.346;2022-11-04T04:54:56;7.68;;;2.75;;
51122;SDS011;37162;41.724;13.346;2022-11-04T04:57:21;4.72;;;2.55;;
51122;SDS011;37162;41.724;13.346;2022-11-04T04:59:47;6.85;;;3.55;;
51122;SDS011;37162;41.724;13.346;2022-11-04T05:02:12;14.30;;;4.05;;
51122;SDS011;37162;41.724;13.346;2022-11-04T05:04:38;6.72;;;2.85;;
51122;SDS011;37162;41.724;13.346;2022-11-04T05:07:03;8.07;;;3.55;;
51122;SDS011;37162;41.724;13.346;2022-11-04T05:09:30;6.90;;;3.60;;
51122;SDS011;37162;41.724;13.346;2022-11-04T05:11:56;7.78;;;2.80;;
51122;SDS011;37162;41.724;13.346;2022-11-04T05:14:21;9.07;;;3.25;;
51122;SDS011;37162;41.724;13.346;2022-11-04T05:16:47;7.05;;;3.65;;
51122;SDS011;37162;41.724;13.346;2022-11-04T05:19:12;6.65;;;2.83;;
51122;SDS011;37162;41.724;13.346;2022-11-04T05:21:37;9.02;;;3.22;;
51122;SDS011;37162;41.724;13.346;2022-11-04T05:24:03;8.13;;;3.13;;
51122;SDS011;37162;41.724;13.346;2022-11-04T05:26:28;8.18;;;3.53;;
51122;SDS011;37162;41.724;13.346;2022-11-04T05:28:54;5.97;;;3.03;;
51122;SDS011;37162;41.724;13.346;2022-11-04T05:31:19;9.35;;;3.63;;
51122;SDS011;37162;41.724;13.346;2022-11-04T05:33:45;6.72;;;2.60;;
51122;SDS011;37162;41.724;13.346;2022-11-04T05:36:11;4.03;;;2.63;;
51122;SDS011;37162;41.724;13.346;2022-11-04T05:38:38;6.05;;;3.38;;
51122;SDS011;37162;41.724;13.346;2022-11-04T05:41:04;8.30;;;3.15;;
51122;SDS011;37162;41.724;13.346;2022-11-04T05:43:31;8.32;;;3.20;;
51122;SDS011;37162;41.724;13.346;2022-11-04T05:45:58;9.43;;;3.67;;
51122;SDS011;37162;41.724;13.346;2022-11-04T05:48:24;6.80;;;2.95;;
51122;SDS011;37162;41.724;13.346;2022-11-04T05:50:50;8.82;;;3.80;;
51122;SDS011;37162;41.724;13.346;2022-11-04T05:53:15;7.90;;;3.55;;
51122;SDS011;37162;41.724;13.346;2022-11-04T05:55:40;4.88;;;2.75;;
51122;SDS011;37162;41.724;13.346;2022-11-04T05:58:06;7.60;;;3.28;;
51122;SDS011;37162;41.724;13.346;2022-11-04T06:00:31;9.02;;;3.50;;
51122;SDS011;37162;41.724;13.346;2022-11-04T06:02:57;6.90;;;3.30;;
51122;SDS011;37162;41.724;13.346;2022-11-04T06:05:22;5.35;;;2.85;;
51122;SDS011;37162;41.724;13.346;2022-11-04T06:07:48;8.25;;;3.10;;
51122;SDS011;37162;41.724;13.346;2022-11-04T06:10:14;7.72;;;3.35;;
51122;SDS011;37162;41.724;13.346;2022-11-04T06:12:39;7.47;;;3.25;;
51122;SDS011;37162;41.724;13.346;2022-11-04T06:15:05;8.05;;;4.10;;
51122;SDS011;37162;41.724;13.346;2022-11-04T06:17:30;7.82;;;3.40;;
51122;SDS011;37162;41.724;13.346;2022-11-04T06:19:56;10.88;;;3.90;;
51122;SDS011;37162;41.724;13.346;2022-11-04T06:22:21;9.05;;;3.53;;
51122;SDS011;37162;41.724;13.346;2022-11-04T06:24:47;9.77;;;4.00;;
51122;SDS011;37162;41.724;13.346;2022-11-04T06:27:12;7.90;;;3.35;;
51122;SDS011;37162;41.724;13.346;2022-11-04T06:29:38;8.52;;;3.85;;
51122;SDS011;37162;41.724;13.346;2022-11-04T06:32:08;9.75;;;3.13;;
51122;SDS011;37162;41.724;13.346;2022-11-04T06:34:35;9.13;;;3.67;;
51122;SDS011;37162;41.724;13.346;2022-11-04T06:37:01;6.72;;;3.60;;
51122;SDS011;37162;41.724;13.346;2022-11-04T06:39:27;5.55;;;3.20;;
51122;SDS011;37162;41.724;13.346;2022-11-04T06:41:52;7.18;;;3.33;;
51122;SDS011;37162;41.724;13.346;2022-11-04T06:44:18;5.88;;;3.50;;
51122;SDS011;37162;41.724;13.346;2022-11-04T06:46:43;7.68;;;3.58;;
51122;SDS011;37162;41.724;13.346;2022-11-04T06:49:10;6.90;;;3.63;;
51122;SDS011;37162;41.724;13.346;2022-11-04T06:51:47;4.97;;;3.17;;
51122;SDS011;37162;41.724;13.346;2022-11-04T06:54:13;6.38;;;3.67;;
51122;SDS011;37162;41.724;13.346;2022-11-04T06:56:39;6.88;;;3.10;;
51122;SDS011;37162;41.724;13.346;2022-11-04T06:59:05;10.93;;;4.00;;
51122;SDS011;37162;41.724;13.346;2022-11-04T07:01:32;7.75;;;4.05;;
51122;SDS011;37162;41.724;13.346;2022-11-04T07:03:59;8.00;;;3.10;;
51122;SDS011;37162;41.724;13.346;2022-11-04T07:06:26;6.65;;;3.40;;
51122;SDS011;37162;41.724;13.346;2022-11-04T07:08:55;9.15;;;3.05;;
51122;SDS011;37162;41.724;13.346;2022-11-04T07:11:22;8.27;;;2.97;;
51122;SDS011;37162;41.724;13.346;2022-11-04T07:13:49;6.55;;;3.30;;
51122;SDS011;37162;41.724;13.346;2022-11-04T07:16:15;7.68;;;3.90;;
51122;SDS011;37162;41.724;13.346;2022-11-04T07:18:41;7.32;;;3.75;;
51122;SDS011;37162;41.724;13.346;2022-11-04T07:21:06;5.80;;;3.03;;
51122;SDS011;37162;41.724;13.346;2022-11-04T07:23:32;6.30;;;3.22;;
51122;SDS011;37162;41.724;13.346;2022-11-04T07:25:59;7.13;;;3.55;;
51122;SDS011;37162;41.724;13.346;2022-11-04T07:28:28;6.28;;;3.15;;
51122;SDS011;37162;41.724;13.346;2022-11-04T07:30:54;5.25;;;2.90;;
51122;SDS011;37162;41.724;13.346;2022-11-04T07:33:21;5.43;;;3.10;;
51122;SDS011;37162;41.724;13.346;2022-11-04T07:35:47;7.70;;;3.85;;
51122;SDS011;37162;41.724;13.346;2022-11-04T07:38:13;5.90;;;2.92;;
51122;SDS011;37162;41.724;13.346;2022-11-04T07:40:38;9.40;;;3.35;;
51122;SDS011;37162;41.724;13.346;2022-11-04T07:43:04;8.70;;;3.58;;
51122;SDS011;37162;41.724;13.346;2022-11-04T07:45:30;7.18;;;3.10;;
51122;SDS011;37162;41.724;13.346;2022-11-04T07:47:56;6.72;;;2.97;;
51122;SDS011;37162;41.724;13.346;2022-11-04T07:50:22;5.32;;;2.90;;
51122;SDS011;37162;41.724;13.346;2022-11-04T07:52:47;4.90;;;2.70;;
51122;SDS011;37162;41.724;13.346;2022-11-04T07:55:14;5.30;;;2.72;;
51122;SDS011;37162;41.724;13.346;2022-11-04T07:57:42;8.63;;;3.03;;
51122;SDS011;37162;41.724;13.346;2022-11-04T08:00:12;8.25;;;3.25;;
51122;SDS011;37162;41.724;13.346;2022-11-04T08:02:39;6.93;;;2.85;;
51122;SDS011;37162;41.724;13.346;2022-11-04T08:05:11;5.10;;;3.20;;
51122;SDS011;37162;41.724;13.346;2022-11-04T08:07:37;4.90;;;3.22;;
51122;SDS011;37162;41.724;13.346;2022-11-04T08:10:03;7.78;;;3.00;;
51122;SDS011;37162;41.724;13.346;2022-11-04T08:12:29;9.07;;;3.67;;
51122;SDS011;37162;41.724;13.346;2022-11-04T08:14:56;9.60;;;3.30;;
51122;SDS011;37162;41.724;13.346;2022-11-04T08:17:23;5.80;;;2.60;;
51122;SDS011;37162;41.724;13.346;2022-11-04T08:19:49;4.63;;;2.90;;
51122;SDS011;37162;41.724;13.346;2022-11-04T08:22:15;5.18;;;3.28;;
51122;SDS011;37162;41.724;13.346;2022-11-04T08:24:40;35.88;;;4.35;;
51122;SDS011;37162;41.724;13.346;2022-11-04T08:27:06;40.00;;;3.92;;
51122;SDS011;37162;41.724;13.346;2022-11-04T08:29:32;5.88;;;3.08;;
51122;SDS011;37162;41.724;13.346;2022-11-04T08:31:58;5.80;;;3.40;;
51122;SDS011;37162;41.724;13.346;2022-11-04T08:34:24;8.35;;;3.10;;
51122;SDS011;37162;41.724;13.346;2022-11-04T08:36:49;10.65;;;3.45;;
51122;SDS011;37162;41.724;13.346;2022-11-04T08:39:17;9.73;;;3.58;;
51122;SDS011;37162;41.724;13.346;2022-11-04T08:41:43;14.23;;;3.75;;
51122;SDS011;37162;41.724;13.346;2022-11-04T08:44:10;10.27;;;3.63;;
51122;SDS011;37162;41.724;13.346;2022-11-04T08:46:37;6.85;;;3.85;;
51122;SDS011;37162;41.724;13.346;2022-11-04T08:49:03;7.55;;;3.42;;
51122;SDS011;37162;41.724;13.346;2022-11-04T08:51:30;6.18;;;3.63;;
51122;SDS011;37162;41.724;13.346;2022-11-04T08:53:57;5.63;;;3.65;;
51122;SDS011;37162;41.724;13.346;2022-11-04T08:56:30;9.05;;;3.47;;
51122;SDS011;37162;41.724;13.346;2022-11-04T08:58:57;7.22;;;3.90;;
51122;SDS011;37162;41.724;13.346;2022-11-04T09:01:24;10.68;;;3.60;;
51122;SDS011;37162;41.724;13.346;2022-11-04T09:03:51;7.43;;;3.03;;
51122;SDS011;37162;41.724;13.346;2022-11-04T09:06:21;6.35;;;3.60;;
51122;SDS011;37162;41.724;13.346;2022-11-04T09:08:49;5.60;;;2.88;;
51122;SDS011;37162;41.724;13.346;2022-11-04T09:11:15;8.10;;;3.25;;
51122;SDS011;37162;41.724;13.346;2022-11-04T09:13:41;10.30;;;3.83;;
51122;SDS011;37162;41.724;13.346;2022-11-04T09:16:08;13.10;;;4.20;;
51122;SDS011;37162;41.724;13.346;2022-11-04T09:18:35;25.17;;;5.35;;
51122;SDS011;37162;41.724;13.346;2022-11-04T09:21:01;15.95;;;4.78;;
51122;SDS011;37162;41.724;13.346;2022-11-04T09:23:28;14.38;;;4.53;;
51122;SDS011;37162;41.724;13.346;2022-11-04T09:25:53;11.98;;;3.95;;
51122;SDS011;37162;41.724;13.346;2022-11-04T09:28:21;8.05;;;4.40;;
51122;SDS011;37162;41.724;13.346;2022-11-04T09:30:46;7.88;;;4.13;;
51122;SDS011;37162;41.724;13.346;2022-11-04T09:33:15;10.18;;;4.15;;
51122;SDS011;37162;41.724;13.346;2022-11-04T09:35:41;10.48;;;3.35;;
51122;SDS011;37162;41.724;13.346;2022-11-04T09:38:06;12.50;;;4.18;;
51122;SDS011;37162;41.724;13.346;2022-11-04T09:40:33;5.95;;;3.67;;
51122;SDS011;37162;41.724;13.346;2022-11-04T09:45:28;11.45;;;3.70;;
51122;SDS011;37162;41.724;13.346;2022-11-04T09:47:57;6.10;;;3.78;;
51122;SDS011;37162;41.724;13.346;2022-11-04T09:50:31;7.38;;;3.72;;
51122;SDS011;37162;41.724;13.346;2022-11-04T09:53:54;10.95;;;4.78;;
51122;SDS011;37162;41.724;13.346;2022-11-04T09:56:22;5.78;;;3.53;;
51122;SDS011;37162;41.724;13.346;2022-11-04T09:58:52;6.18;;;3.30;;
51122;SDS011;37162;41.724;13.346;2022-11-04T10:09:32;17.02;;;5.60;;
51122;SDS011;37162;41.724;13.346;2022-11-04T10:14:44;11.30;;;4.50;;
51122;SDS011;37162;41.724;13.346;2022-11-04T10:17:34;17.45;;;3.70;;
51122;SDS011;37162;41.724;13.346;2022-11-04T10:23:09;13.32;;;3.38;;
51122;SDS011;37162;41.724;13.346;2022-11-04T10:25:48;7.30;;;3.40;;
51122;SDS011;37162;41.724;13.346;2022-11-04T10:28:39;7.65;;;3.80;;
51122;SDS011;37162;41.724;13.346;2022-11-04T10:31:10;8.13;;;4.35;;
51122;SDS011;37162;41.724;13.346;2022-11-04T10:33:41;10.25;;;4.10;;
51122;SDS011;37162;41.724;13.346;2022-11-04T10:36:10;8.27;;;4.07;;
51122;SDS011;37162;41.724;13.346;2022-11-04T10:41:19;6.55;;;3.45;;
51122;SDS011;37162;41.724;13.346;2022-11-04T10:43:51;7.70;;;3.33;;
51122;SDS011;37162;41.724;13.346;2022-11-04T10:46:29;3.88;;;2.35;;
51122;SDS011;37162;41.724;13.346;2022-11-04T10:52:14;6.45;;;2.80;;
51122;SDS011;37162;41.724;13.346;2022-11-04T10:54:41;5.45;;;3.35;;
51122;SDS011;37162;41.724;13.346;2022-11-04T10:57:08;11.25;;;3.40;;
51122;SDS011;37162;41.724;13.346;2022-11-04T11:02:10;6.93;;;3.40;;
51122;SDS011;37162;41.724;13.346;2022-11-04T11:04:36;5.32;;;3.10;;
51122;SDS011;37162;41.724;13.346;2022-11-04T11:07:08;6.90;;;3.10;;
51122;SDS011;37162;41.724;13.346;2022-11-04T11:09:35;7.57;;;3.05;;
51122;SDS011;37162;41.724;13.346;2022-11-04T11:12:16;7.35;;;3.58;;
51122;SDS011;37162;41.724;13.346;2022-11-04T11:14:48;5.38;;;3.22;;
51122;SDS011;37162;41.724;13.346;2022-11-04T11:20:01;9.65;;;3.67;;
51122;SDS011;37162;41.724;13.346;2022-11-04T11:22:42;7.25;;;3.33;;
51122;SDS011;37162;41.724;13.346;2022-11-04T11:28:20;6.10;;;3.22;;
51122;SDS011;37162;41.724;13.346;2022-11-04T11:30:53;10.80;;;4.05;;
51122;SDS011;37162;41.724;13.346;2022-11-04T11:33:35;6.70;;;3.08;;
51122;SDS011;37162;41.724;13.346;2022-11-04T11:36:25;7.35;;;3.25;;
51122;SDS011;37162;41.724;13.346;2022-11-04T11:41:27;6.22;;;4.05;;
51122;SDS011;37162;41.724;13.346;2022-11-04T11:43:58;8.95;;;3.20;;
51122;SDS011;37162;41.724;13.346;2022-11-04T11:46:28;7.90;;;3.47;;
51122;SDS011;37162;41.724;13.346;2022-11-04T11:48:57;9.10;;;3.28;;
51122;SDS011;37162;41.724;13.346;2022-11-04T11:57:02;8.23;;;2.60;;
51122;SDS011;37162;41.724;13.346;2022-11-04T11:59:48;7.32;;;2.42;;
51122;SDS011;37162;41.724;13.346;2022-11-04T12:04:53;5.53;;;2.80;;
51122;SDS011;37162;41.724;13.346;2022-11-04T12:10:06;8.35;;;3.20;;
51122;SDS011;37162;41.724;13.346;2022-11-04T12:30:06;6.88;;;2.40;;
51122;SDS011;37162;41.724;13.346;2022-11-04T12:35:39;8.18;;;1.95;;
51122;SDS011;37162;41.724;13.346;2022-11-04T12:43:33;7.67;;;2.20;;
51122;SDS011;37162;41.724;13.346;2022-11-04T12:51:17;3.00;;;1.70;;
51122;SDS011;37162;41.724;13.346;2022-11-04T12:56:52;4.75;;;1.80;;
51122;SDS011;37162;41.724;13.346;2022-11-04T13:07:49;4.68;;;1.45;;
51122;SDS011;37162;41.724;13.346;2022-11-04T13:10:22;4.22;;;1.70;;
51122;SDS011;37162;41.724;13.346;2022-11-04T13:13:02;2.75;;;1.42;;
51122;SDS011;37162;41.724;13.346;2022-11-04T13:15:32;6.18;;;2.55;;
51122;SDS011;37162;41.724;13.346;2022-11-04T13:18:08;5.10;;;2.08;;
51122;SDS011;37162;41.724;13.346;2022-11-04T13:23:12;4.35;;;1.73;;
51122;SDS011;37162;41.724;13.346;2022-11-04T13:25:44;4.25;;;1.85;;
51122;SDS011;37162;41.724;13.346;2022-11-04T13:28:12;6.07;;;1.77;;
51122;SDS011;37162;41.724;13.346;2022-11-04T13:37:03;3.22;;;1.67;;
51122;SDS011;37162;41.724;13.346;2022-11-04T13:39:24;2.83;;;1.70;;
51122;SDS011;37162;41.724;13.346;2022-11-04T13:44:54;3.50;;;1.40;;
51122;SDS011;37162;41.724;13.346;2022-11-04T13:47:28;6.05;;;1.73;;
51122;SDS011;37162;41.724;13.346;2022-11-04T13:50:25;4.63;;;2.00;;
51122;SDS011;37162;41.724;13.346;2022-11-04T13:53:02;4.55;;;1.55;;
51122;SDS011;37162;41.724;13.346;2022-11-04T13:55:29;4.57;;;1.65;;
51122;SDS011;37162;41.724;13.346;2022-11-04T13:58:02;3.78;;;1.70;;
51122;SDS011;37162;41.724;13.346;2022-11-04T14:00:31;6.25;;;1.88;;
51122;SDS011;37162;41.724;13.346;2022-11-04T14:02:59;3.67;;;1.50;;
51122;SDS011;37162;41.724;13.346;2022-11-04T14:05:44;5.82;;;1.40;;
51122;SDS011;37162;41.724;13.346;2022-11-04T14:08:14;5.15;;;1.55;;
51122;SDS011;37162;41.724;13.346;2022-11-04T14:16:00;3.80;;;1.40;;
51122;SDS011;37162;41.724;13.346;2022-11-04T14:18:38;4.00;;;1.70;;
51122;SDS011;37162;41.724;13.346;2022-11-04T14:23:42;4.90;;;1.88;;
51122;SDS011;37162;41.724;13.346;2022-11-04T14:26:11;3.85;;;1.60;;
51122;SDS011;37162;41.724;13.346;2022-11-04T14:28:40;3.97;;;1.90;;
51122;SDS011;37162;41.724;13.346;2022-11-04T14:46:51;2.90;;;1.45;;
51122;SDS011;37162;41.724;13.346;2022-11-04T14:49:31;4.53;;;1.65;;
51122;SDS011;37162;41.724;13.346;2022-11-04T14:52:20;5.15;;;1.65;;
51122;SDS011;37162;41.724;13.346;2022-11-04T14:54:52;3.97;;;1.52;;
51122;SDS011;37162;41.724;13.346;2022-11-04T14:57:51;6.63;;;2.08;;
51122;SDS011;37162;41.724;13.346;2022-11-04T15:00:34;3.28;;;1.55;;
51122;SDS011;37162;41.724;13.346;2022-11-04T15:05:52;7.15;;;2.13;;
51122;SDS011;37162;41.724;13.346;2022-11-04T15:13:42;3.70;;;1.98;;
51122;SDS011;37162;41.724;13.346;2022-11-04T15:16:18;9.98;;;1.95;;
51122;SDS011;37162;41.724;13.346;2022-11-04T15:18:46;5.82;;;2.05;;
51122;SDS011;37162;41.724;13.346;2022-11-04T15:21:13;7.00;;;2.45;;
51122;SDS011;37162;41.724;13.346;2022-11-04T15:23:40;6.63;;;1.90;;
51122;SDS011;37162;41.724;13.346;2022-11-04T15:28:53;6.63;;;2.13;;
51122;SDS011;37162;41.724;13.346;2022-11-04T15:31:21;5.75;;;1.90;;
51122;SDS011;37162;41.724;13.346;2022-11-04T15:33:53;6.63;;;1.90;;
51122;SDS011;37162;41.724;13.346;2022-11-04T15:36:27;6.65;;;1.80;;
51122;SDS011;37162;41.724;13.346;2022-11-04T15:39:01;4.25;;;1.67;;
51122;SDS011;37162;41.724;13.346;2022-11-04T15:41:31;4.18;;;1.38;;
51122;SDS011;37162;41.724;13.346;2022-11-04T15:44:26;6.00;;;1.63;;
51122;SDS011;37162;41.724;13.346;2022-11-04T15:46:54;5.07;;;1.70;;
51122;SDS011;37162;41.724;13.346;2022-11-04T15:49:26;4.28;;;1.83;;
51122;SDS011;37162;41.724;13.346;2022-11-04T15:51:54;7.57;;;2.58;;
51122;SDS011;37162;41.724;13.346;2022-11-04T15:54:25;4.40;;;1.83;;
51122;SDS011;37162;41.724;13.346;2022-11-04T15:56:55;4.25;;;2.20;;
51122;SDS011;37162;41.724;13.346;2022-11-04T15:59:30;3.38;;;1.90;;
51122;SDS011;37162;41.724;13.346;2022-11-04T16:01:58;7.07;;;1.77;;
51122;SDS011;37162;41.724;13.346;2022-11-04T16:04:25;4.45;;;1.80;;
51122;SDS011;37162;41.724;13.346;2022-11-04T16:07:02;5.68;;;1.85;;
51122;SDS011;37162;41.724;13.346;2022-11-04T16:09:30;8.27;;;2.45;;
51122;SDS011;37162;41.724;13.346;2022-11-04T16:12:16;4.90;;;2.17;;
51122;SDS011;37162;41.724;13.346;2022-11-04T16:14:52;7.95;;;2.08;;
51122;SDS011;37162;41.724;13.346;2022-11-04T16:17:19;4.72;;;1.80;;
51122;SDS011;37162;41.724;13.346;2022-11-04T16:19:46;3.28;;;1.60;;
51122;SDS011;37162;41.724;13.346;2022-11-04T16:22:16;6.35;;;2.35;;
51122;SDS011;37162;41.724;13.346;2022-11-04T16:24:46;6.00;;;2.47;;
51122;SDS011;37162;41.724;13.346;2022-11-04T16:27:15;5.00;;;2.10;;
51122;SDS011;37162;41.724;13.346;2022-11-04T16:29:49;9.43;;;2.50;;
51122;SDS011;37162;41.724;13.346;2022-11-04T16:32:24;6.10;;;2.80;;
51122;SDS011;37162;41.724;13.346;2022-11-04T16:34:53;5.38;;;2.17;;
51122;SDS011;37162;41.724;13.346;2022-11-04T16:37:22;4.47;;;2.42;;
51122;SDS011;37162;41.724;13.346;2022-11-04T16:39:49;6.88;;;2.65;;
51122;SDS011;37162;41.724;13.346;2022-11-04T16:42:15;5.15;;;2.40;;
51122;SDS011;37162;41.724;13.346;2022-11-04T16:44:48;5.20;;;2.75;;
51122;SDS011;37162;41.724;13.346;2022-11-04T16:47:16;6.88;;;2.63;;
51122;SDS011;37162;41.724;13.346;2022-11-04T16:49:43;6.05;;;2.60;;
51122;SDS011;37162;41.724;13.346;2022-11-04T17:13:33;5.97;;;2.78;;
51122;SDS011;37162;41.724;13.346;2022-11-04T17:15:59;8.13;;;2.65;;
51122;SDS011;37162;41.724;13.346;2022-11-04T17:18:24;9.98;;;3.47;;
51122;SDS011;37162;41.724;13.346;2022-11-04T17:20:51;8.05;;;2.78;;
51122;SDS011;37162;41.724;13.346;2022-11-04T17:23:19;4.68;;;2.95;;
51122;SDS011;37162;41.724;13.346;2022-11-04T17:25:45;13.18;;;4.75;;
51122;SDS011;37162;41.724;13.346;2022-11-04T17:28:11;8.45;;;3.20;;
51122;SDS011;37162;41.724;13.346;2022-11-04T17:30:38;5.20;;;2.92;;
51122;SDS011;37162;41.724;13.346;2022-11-04T17:33:04;5.30;;;3.08;;
51122;SDS011;37162;41.724;13.346;2022-11-04T17:35:35;9.52;;;3.53;;
51122;SDS011;37162;41.724;13.346;2022-11-04T17:38:01;7.57;;;3.17;;
51122;SDS011;37162;41.724;13.346;2022-11-04T17:40:27;5.60;;;3.45;;
51122;SDS011;37162;41.724;13.346;2022-11-04T17:42:53;6.55;;;3.05;;
51122;SDS011;37162;41.724;13.346;2022-11-04T17:45:37;5.22;;;2.95;;
51122;SDS011;37162;41.724;13.346;2022-11-04T17:48:03;5.93;;;3.33;;
51122;SDS011;37162;41.724;13.346;2022-11-04T17:50:30;5.78;;;2.78;;
51122;SDS011;37162;41.724;13.346;2022-11-04T17:52:56;6.70;;;3.30;;
51122;SDS011;37162;41.724;13.346;2022-11-04T17:55:22;6.95;;;2.83;;
51122;SDS011;37162;41.724;13.346;2022-11-04T17:57:47;7.05;;;3.17;;
51122;SDS011;37162;41.724;13.346;2022-11-04T18:00:13;4.32;;;2.75;;
51122;SDS011;37162;41.724;13.346;2022-11-04T18:02:39;8.98;;;3.67;;
51122;SDS011;37162;41.724;13.346;2022-11-04T18:05:05;6.82;;;3.05;;
51122;SDS011;37162;41.724;13.346;2022-11-04T18:07:32;6.13;;;3.67;;